Time;durP1;ratioP1;P1;durP2;ratioP2;P2;SDS_P1;SDS_P2;PMS_P1;PMS_P2;Temp;Humidity;BMP_temperature;BMP_pressure;BME280_temperature;BME280_humidity;BME280_pressure;Samples;Min_cycle;Max_cycle;Signal;HPM_P1;HPM_P2
2023/10/03 00:00:24;;;;;;;32.83;13.75;;;16.90;99.90;;;16.81;100.00;97385.75;5058115;28;20036;-40
2023/10/03 00:02:55;;;;;;;28.48;12.73;;;16.90;99.90;;;16.76;100.00;97386.06;5056159;28;20028;-39
2023/10/03 00:05:22;;;;;;;31.70;13.35;;;16.90;99.90;;;16.69;100.00;97383.84;5063077;28;20039;-39
2023/10/03 00:07:51;;;;;;;30.80;12.32;;;16.80;99.90;;;16.48;100.00;97360.28;5058095;28;20392;-39
2023/10/03 00:10:17;;;;;;;29.85;12.95;;;16.70;99.90;;;16.53;100.00;97381.31;5061849;28;20882;-41
2023/10/03 00:12:44;;;;;;;26.15;12.93;;;16.70;99.90;;;16.43;100.00;97383.66;5057346;28;20548;-40
2023/10/03 00:15:12;;;;;;;26.92;13.23;;;16.60;99.90;;;16.39;100.00;97377.66;5067476;28;20028;-40
2023/10/03 00:17:39;;;;;;;29.15;13.15;;;16.50;99.90;;;16.37;100.00;97381.38;5067576;28;20119;-39
2023/10/03 00:20:07;;;;;;;27.35;13.07;;;16.50;99.90;;;16.32;100.00;97384.31;5062925;28;20481;-40
2023/10/03 00:22:34;;;;;;;28.60;12.60;;;16.40;99.90;;;16.28;100.00;97388.09;5065632;28;20511;-39
2023/10/03 00:25:01;;;;;;;29.08;13.20;;;16.40;99.90;;;16.20;100.00;97369.06;5063692;28;20042;-39
2023/10/03 00:27:28;;;;;;;31.85;14.10;;;16.40;99.90;;;16.17;100.00;97375.44;5066030;28;20089;-40
2023/10/03 00:29:55;;;;;;;26.42;12.88;;;16.30;99.90;;;16.12;100.00;97374.88;5065878;28;20398;-40
2023/10/03 00:32:20;;;;;;;26.52;12.63;;;16.20;99.90;;;16.04;100.00;97366.47;5056148;28;20024;-39
2023/10/03 00:34:46;;;;;;;29.55;13.23;;;16.20;99.90;;;16.05;100.00;97376.16;5056754;28;20071;-38
2023/10/03 00:37:12;;;;;;;28.77;13.25;;;16.20;99.90;;;16.00;100.00;97368.44;5064219;28;20483;-41
2023/10/03 00:39:38;;;;;;;23.48;12.10;;;16.20;99.90;;;15.98;100.00;97365.03;5064346;28;20032;-39
2023/10/03 00:42:05;;;;;;;27.25;11.90;;;16.10;99.90;;;16.00;100.00;97363.13;5062931;28;20073;-39
2023/10/03 00:44:31;;;;;;;30.80;12.13;;;16.10;99.90;;;16.02;100.00;97366.59;5068412;28;20037;-39
2023/10/03 00:46:57;;;;;;;26.50;12.77;;;16.10;99.90;;;16.04;100.00;97355.81;5066923;28;20449;-39
2023/10/03 00:49:24;;;;;;;29.85;13.30;;;16.20;99.90;;;16.08;100.00;97360.03;5064531;28;20028;-39
2023/10/03 00:51:51;;;;;;;27.52;12.95;;;16.20;99.90;;;16.09;100.00;97351.09;5064263;28;20144;-40
2023/10/03 00:54:17;;;;;;;25.60;12.27;;;16.20;99.90;;;16.12;100.00;97353.56;5063991;28;20030;-39
2023/10/03 00:56:45;;;;;;;28.63;12.05;;;16.20;99.90;;;16.16;100.00;97355.09;5066753;28;20032;-39
2023/10/03 00:59:10;;;;;;;30.50;13.23;;;16.30;99.90;;;16.19;100.00;97356.72;5064719;28;20029;-38
2023/10/03 01:01:37;;;;;;;27.63;12.27;;;16.30;99.90;;;16.19;100.00;97346.09;5061156;28;20089;-40
2023/10/03 01:04:04;;;;;;;28.20;12.23;;;16.30;99.90;;;16.23;100.00;97347.59;5062745;28;20167;-40
2023/10/03 01:06:30;;;;;;;32.60;13.07;;;16.40;99.90;;;16.30;100.00;97340.13;5066794;28;20029;-42
2023/10/03 01:08:58;;;;;;;30.80;13.90;;;16.40;99.90;;;16.44;100.00;97342.78;5069171;28;20028;-39
2023/10/03 01:11:25;;;;;;;29.98;13.73;;;16.50;99.90;;;16.68;100.00;97344.88;5071279;28;20028;-40
2023/10/03 01:13:56;;;;;;;31.80;13.73;;;16.70;99.90;;;16.77;100.00;97341.63;5069072;28;20387;-40
2023/10/03 01:16:36;;;;;;;28.17;12.10;;;16.80;99.90;;;16.83;100.00;97343.91;5067608;28;20028;-39
2023/10/03 01:21:35;;;;;;;30.48;13.82;;;16.90;99.90;;;16.94;100.00;97336.13;5066589;28;20040;-39
2023/10/03 01:24:04;;;;;;;32.90;13.52;;;17.00;99.90;;;17.02;100.00;97332.13;5064653;28;20112;-40
2023/10/03 01:26:31;;;;;;;32.05;13.68;;;17.10;99.90;;;17.09;100.00;97331.63;5071551;28;20407;-39
2023/10/03 01:28:59;;;;;;;27.70;12.63;;;17.10;99.90;;;17.08;100.00;97329.06;5064094;28;20221;-39
2023/10/03 01:31:24;;;;;;;29.80;13.23;;;17.10;99.90;;;17.07;100.00;97333.53;5067090;28;20035;-39
2023/10/03 01:33:50;;;;;;;26.27;12.82;;;17.10;99.90;;;17.08;100.00;97327.22;5065482;28;20343;-39
2023/10/03 01:36:18;;;;;;;31.40;12.80;;;17.20;99.90;;;17.10;100.00;97328.00;5065684;28;20032;-39
2023/10/03 01:38:45;;;;;;;29.38;12.95;;;17.20;99.90;;;17.10;100.00;97324.47;5067458;28;20033;-39
2023/10/03 01:41:12;;;;;;;27.98;13.00;;;17.20;99.90;;;16.95;100.00;97297.88;5068849;28;20029;-40
2023/10/03 01:43:43;;;;;;;27.42;12.05;;;17.20;99.90;;;17.06;100.00;97322.97;5067889;28;20024;-39
2023/10/03 01:46:09;;;;;;;24.83;11.93;;;17.20;99.90;;;17.00;100.00;97321.56;5068596;28;20036;-40
2023/10/03 01:48:36;;;;;;;26.80;11.68;;;17.10;99.90;;;16.94;100.00;97316.59;5070126;28;20043;-40
2023/10/03 01:51:02;;;;;;;24.90;11.35;;;17.00;99.90;;;16.88;100.00;97309.88;5067119;28;20031;-39
2023/10/03 01:53:29;;;;;;;28.23;12.57;;;17.00;99.90;;;16.64;100.00;97274.13;5069886;28;20020;-39
2023/10/03 01:55:56;;;;;;;29.10;12.73;;;16.90;99.90;;;16.73;100.00;97300.19;5068793;28;20100;-38
2023/10/03 01:58:24;;;;;;;30.25;12.75;;;16.80;99.90;;;16.72;100.00;97298.44;5067480;28;20059;-39
2023/10/03 02:00:50;;;;;;;33.55;13.63;;;16.90;99.90;;;16.77;100.00;97293.69;5062118;28;20395;-39
2023/10/03 02:03:18;;;;;;;27.05;13.15;;;16.80;99.90;;;16.73;100.00;97289.53;5070408;28;20096;-39
2023/10/03 02:05:45;;;;;;;29.58;12.57;;;16.90;99.90;;;16.81;100.00;97292.53;5059509;28;20532;-39
2023/10/03 02:08:19;;;;;;;31.70;14.00;;;16.90;99.90;;;16.80;100.00;97285.53;5071200;28;20024;-39
2023/10/03 02:10:49;;;;;;;26.35;12.10;;;16.90;99.90;;;16.79;100.00;97286.47;5066408;28;20432;-38
2023/10/03 02:13:17;;;;;;;26.05;12.35;;;16.90;99.90;;;16.76;100.00;97283.97;5069506;28;20396;-38
2023/10/03 02:15:48;;;;;;;26.13;12.25;;;16.90;99.90;;;16.70;100.00;97279.91;5038084;28;20028;-39
2023/10/03 02:18:17;;;;;;;24.30;11.50;;;16.80;99.90;;;16.65;100.00;97290.00;5064916;28;20535;-40
2023/10/03 02:20:52;;;;;;;29.90;12.52;;;16.80;99.90;;;16.63;100.00;97277.75;5061352;28;20036;-39
2023/10/03 02:23:25;;;;;;;26.70;12.30;;;16.70;99.90;;;16.58;100.00;97273.56;5067251;28;20745;-39
2023/10/03 02:25:55;;;;;;;29.67;13.00;;;16.70;99.90;;;16.52;100.00;97278.41;5069585;28;20047;-38
2023/10/03 02:28:22;;;;;;;24.65;11.68;;;16.60;99.90;;;16.47;100.00;97275.19;5067215;28;20496;-41
2023/10/03 02:30:51;;;;;;;24.52;11.55;;;16.60;99.90;;;16.41;100.00;97276.44;5066461;28;20116;-38
2023/10/03 02:33:17;;;;;;;25.38;11.55;;;16.50;99.90;;;16.35;100.00;97269.69;5063988;28;20020;-39
2023/10/03 02:35:48;;;;;;;26.55;11.68;;;16.50;99.90;;;16.31;100.00;97275.28;5057178;28;20028;-39
2023/10/03 02:38:25;;;;;;;24.63;11.98;;;16.40;99.90;;;16.26;100.00;97262.28;5065778;28;20184;-40
2023/10/03 02:40:54;;;;;;;30.30;13.23;;;16.40;99.90;;;16.19;100.00;97251.16;5066910;28;20115;-40
2023/10/03 02:43:20;;;;;;;27.25;12.10;;;16.30;99.90;;;16.16;100.00;97245.16;5068142;28;20299;-39
2023/10/03 02:45:46;;;;;;;34.25;12.65;;;16.30;99.90;;;16.13;100.00;97253.34;5068727;28;20032;-39
2023/10/03 02:48:15;;;;;;;23.45;11.18;;;16.20;99.90;;;16.08;100.00;97252.75;5067198;28;20103;-39
2023/10/03 02:50:43;;;;;;;23.55;10.48;;;16.20;99.90;;;16.00;100.00;97250.56;5064678;28;20035;-39
2023/10/03 02:53:12;;;;;;;24.15;11.77;;;16.20;99.90;;;15.91;100.00;97254.66;5061163;28;20024;-40
2023/10/03 02:55:38;;;;;;;30.60;13.77;;;16.10;99.90;;;15.84;100.00;97246.22;5067549;28;20047;-39
2023/10/03 02:58:05;;;;;;;24.00;11.88;;;16.00;99.90;;;15.83;100.00;97251.63;5067277;28;20027;-39
2023/10/03 03:00:33;;;;;;;29.67;12.75;;;16.00;99.90;;;15.81;100.00;97248.19;5067126;28;20131;-39
2023/10/03 03:02:59;;;;;;;24.60;11.23;;;16.00;99.90;;;15.74;100.00;97239.72;5069790;28;20035;-39
2023/10/03 03:05:35;;;;;;;27.48;12.23;;;16.00;99.90;;;15.79;100.00;97248.28;5070235;28;20083;-39
2023/10/03 03:08:07;;;;;;;24.65;11.02;;;16.00;99.90;;;15.82;100.00;97244.56;5064987;28;20546;-40
2023/10/03 03:10:33;;;;;;;26.63;12.27;;;16.00;99.90;;;15.83;100.00;97241.81;5065368;28;20284;-39
2023/10/03 03:12:58;;;;;;;29.42;12.68;;;16.00;99.90;;;15.81;100.00;97243.72;5068635;28;20036;-40
2023/10/03 03:15:27;;;;;;;26.45;12.20;;;16.00;99.90;;;15.79;100.00;97240.31;5062861;28;20045;-40
2023/10/03 03:17:53;;;;;;;26.77;11.43;;;16.00;99.90;;;15.88;100.00;97246.88;5064397;28;20020;-39
2023/10/03 03:20:28;;;;;;;24.20;11.45;;;16.00;99.90;;;15.88;100.00;97252.19;5064664;28;23319;-39
2023/10/03 03:23:00;;;;;;;26.00;11.38;;;16.10;99.90;;;15.90;100.00;97246.75;5057974;28;20117;-39
2023/10/03 03:25:36;;;;;;;25.27;11.60;;;16.10;99.90;;;15.89;100.00;97245.91;5061440;28;20082;-39
2023/10/03 03:28:13;;;;;;;25.75;11.13;;;16.00;99.90;;;15.88;100.00;97243.34;5063447;28;20039;-39
2023/10/03 03:30:54;;;;;;;23.73;10.65;;;16.00;99.90;;;15.88;100.00;97251.31;5065903;28;20043;-38
2023/10/03 03:33:27;;;;;;;26.05;11.15;;;16.00;99.90;;;15.76;100.00;97245.81;5068229;28;20024;-39
2023/10/03 03:35:54;;;;;;;22.02;10.52;;;16.00;99.90;;;15.83;100.00;97252.47;5062905;28;20046;-39
2023/10/03 03:38:20;;;;;;;23.38;10.15;;;16.00;99.90;;;15.80;100.00;97251.78;5067094;28;20124;-38
2023/10/03 03:40:53;;;;;;;21.00;10.02;;;15.90;99.90;;;15.73;100.00;97248.59;5066894;28;20385;-38
2023/10/03 03:43:21;;;;;;;28.85;10.93;;;16.00;99.90;;;15.74;100.00;97255.69;5068208;28;20305;-39
2023/10/03 03:45:48;;;;;;;20.60;9.63;;;15.90;99.90;;;15.65;100.00;97245.56;5067841;28;20036;-39
2023/10/03 03:48:14;;;;;;;23.05;10.43;;;15.90;99.90;;;15.75;100.00;97259.19;5067601;28;20020;-39
2023/10/03 03:50:41;;;;;;;22.67;10.27;;;15.90;99.90;;;15.74;100.00;97257.44;5069813;28;20035;-39
2023/10/03 03:53:07;;;;;;;21.77;10.05;;;15.90;99.90;;;15.64;100.00;97246.50;5065064;28;20028;-38
2023/10/03 03:55:37;;;;;;;20.67;10.48;;;15.90;99.90;;;15.67;100.00;97259.63;5061934;28;20039;-39
2023/10/03 03:58:07;;;;;;;22.85;10.30;;;15.80;99.90;;;15.67;100.00;97249.00;5071208;28;20039;-39
2023/10/03 04:00:34;;;;;;;21.45;9.95;;;15.90;99.90;;;15.67;100.00;97254.31;5063493;28;20032;-39
2023/10/03 04:03:11;;;;;;;25.13;10.55;;;15.90;99.90;;;15.67;100.00;97254.31;5064048;28;20192;-38
2023/10/03 04:05:37;;;;;;;21.95;10.65;;;15.80;99.90;;;15.70;100.00;97250.59;5068763;28;20404;-39
2023/10/03 04:08:04;;;;;;;22.58;9.63;;;15.90;99.90;;;15.70;100.00;97226.66;5066534;28;20057;-39
2023/10/03 04:10:32;;;;;;;19.75;9.80;;;16.00;99.90;;;15.79;100.00;97237.66;5068096;28;20416;-38
2023/10/03 04:12:59;;;;;;;23.60;10.32;;;16.00;99.90;;;15.89;100.00;97237.94;5066460;28;20031;-40
2023/10/03 04:15:25;;;;;;;24.17;9.57;;;16.00;99.90;;;15.96;100.00;97235.75;5063210;28;20165;-39
2023/10/03 04:17:51;;;;;;;18.17;8.82;;;16.10;99.90;;;16.02;100.00;97233.59;5068725;28;20028;-38
2023/10/03 04:22:43;;;;;;;23.80;9.98;;;16.20;99.90;;;16.08;100.00;97235.00;5067358;28;20059;-39
2023/10/03 04:25:13;;;;;;;22.08;10.35;;;16.20;99.90;;;16.10;100.00;97229.59;5065524;28;20039;-38
2023/10/03 04:27:39;;;;;;;23.90;10.30;;;16.30;99.90;;;16.07;100.00;97220.00;5071626;28;20042;-38
2023/10/03 04:30:09;;;;;;;23.55;9.80;;;16.30;99.90;;;16.20;100.00;97238.69;5069141;28;20040;-39
2023/10/03 04:32:34;;;;;;;21.80;9.35;;;16.40;99.90;;;16.19;100.00;97235.19;5071475;28;20408;-39
2023/10/03 04:35:02;;;;;;;20.58;9.52;;;16.40;99.90;;;16.14;100.00;97223.97;5069246;28;20121;-38
2023/10/03 04:37:27;;;;;;;20.88;9.68;;;16.40;99.90;;;16.19;100.00;97231.69;5075295;28;20039;-38
2023/10/03 04:39:53;;;;;;;22.10;9.52;;;16.40;99.90;;;16.22;100.00;97235.00;5072456;28;20044;-38
2023/10/03 04:42:19;;;;;;;22.20;8.77;;;16.40;99.90;;;16.22;100.00;97237.66;5069246;28;20043;-37
2023/10/03 04:44:45;;;;;;;17.05;8.32;;;16.40;99.90;;;16.25;100.00;97228.63;5070886;28;20444;-41
2023/10/03 04:47:12;;;;;;;16.52;8.25;;;16.40;99.90;;;16.27;100.00;97236.53;5056370;28;20408;-40
2023/10/03 04:49:38;;;;;;;20.63;8.27;;;16.40;99.90;;;16.34;100.00;97238.69;5062187;28;20082;-38
2023/10/03 04:52:07;;;;;;;16.67;8.25;;;16.50;99.90;;;16.35;100.00;97232.44;5067886;28;20032;-38
2023/10/03 04:54:33;;;;;;;19.10;8.80;;;16.50;99.90;;;16.37;100.00;97241.16;5061489;28;20039;-38
2023/10/03 04:56:59;;;;;;;20.30;7.20;;;16.50;99.90;;;16.29;100.00;97222.16;5062118;28;20063;-38
2023/10/03 04:59:25;;;;;;;15.02;7.10;;;16.60;99.90;;;16.37;100.00;97217.22;5061507;28;20120;-38
2023/10/03 05:01:51;;;;;;;15.15;6.47;;;16.50;99.90;;;16.44;100.00;97233.66;5064275;28;20111;-38
2023/10/03 05:04:17;;;;;;;13.82;7.68;;;16.60;99.90;;;16.50;100.00;97235.06;5068850;28;20064;-39
2023/10/03 05:06:43;;;;;;;12.75;7.22;;;16.60;99.90;;;16.55;100.00;97239.16;5067884;28;20024;-38
2023/10/03 05:09:09;;;;;;;15.38;7.22;;;16.70;99.90;;;16.61;100.00;97235.25;5070288;28;20036;-38
2023/10/03 05:11:35;;;;;;;14.13;6.60;;;16.70;99.90;;;16.65;100.00;97223.44;5070229;28;20028;-38
2023/10/03 05:14:01;;;;;;;14.48;6.82;;;16.80;99.90;;;16.65;100.00;97228.75;5067120;28;20316;-40
2023/10/03 05:16:26;;;;;;;15.38;7.18;;;16.80;99.90;;;16.68;100.00;97230.38;5064379;28;20128;-38
2023/10/03 05:18:52;;;;;;;17.17;7.10;;;16.80;99.90;;;16.74;100.00;97230.84;5065528;28;20480;-37
2023/10/03 05:21:18;;;;;;;13.80;6.57;;;16.80;99.90;;;16.75;100.00;97234.34;5066237;28;20028;-38
2023/10/03 05:23:44;;;;;;;13.70;6.85;;;16.90;99.90;;;16.77;100.00;97237.78;5063049;28;20033;-38
2023/10/03 05:26:09;;;;;;;13.73;6.82;;;16.90;99.90;;;16.76;100.00;97239.59;5061422;28;20795;-38
2023/10/03 05:28:38;;;;;;;14.82;6.47;;;16.90;99.90;;;16.79;100.00;97246.50;5065433;28;20036;-39
2023/10/03 05:31:05;;;;;;;12.38;6.20;;;16.90;99.90;;;16.93;100.00;97230.53;5070628;28;20040;-38
2023/10/03 05:33:31;;;;;;;10.80;5.78;;;17.00;99.90;;;17.10;100.00;97247.22;5066707;28;20449;-39
2023/10/03 05:35:57;;;;;;;13.20;6.20;;;17.20;99.90;;;17.17;100.00;97243.19;5066603;28;20467;-39
2023/10/03 05:38:23;;;;;;;13.00;6.18;;;17.30;99.90;;;17.17;100.00;97241.41;5068128;28;20216;-38
2023/10/03 05:40:49;;;;;;;10.27;6.35;;;17.30;99.90;;;17.25;100.00;97245.34;5070710;28;20036;-38
2023/10/03 05:43:14;;;;;;;11.93;5.75;;;17.40;99.90;;;17.33;100.00;97257.19;5066946;28;20036;-38
2023/10/03 05:45:40;;;;;;;10.93;5.20;;;17.40;99.90;;;17.37;100.00;97249.84;5069764;28;20047;-39
2023/10/03 05:48:06;;;;;;;11.02;5.03;;;17.50;99.90;;;17.40;100.00;97254.97;5068147;28;20228;-39
2023/10/03 05:50:32;;;;;;;13.93;5.55;;;17.50;99.90;;;17.41;100.00;97253.16;5068267;28;20028;-38
2023/10/03 05:52:59;;;;;;;11.02;5.82;;;17.50;99.90;;;17.42;100.00;97257.53;5075661;28;20154;-39
2023/10/03 05:55:25;;;;;;;10.75;5.68;;;17.50;99.90;;;17.42;100.00;97257.53;5070246;28;20023;-40
2023/10/03 05:57:51;;;;;;;10.65;5.60;;;17.50;99.90;;;17.35;100.00;97246.44;5065979;28;20031;-39
2023/10/03 06:00:18;;;;;;;10.95;5.47;;;17.50;99.90;;;17.40;100.00;97252.31;5053881;28;20357;-38
2023/10/03 06:02:47;;;;;;;9.73;4.97;;;17.50;99.90;;;17.39;100.00;97252.41;5065020;28;20518;-39
2023/10/03 06:05:16;;;;;;;10.93;5.93;;;17.50;99.90;;;17.41;100.00;97261.16;5066181;28;20384;-39
2023/10/03 06:07:43;;;;;;;10.95;5.88;;;17.50;99.90;;;17.43;100.00;97261.94;5065417;28;20081;-39
2023/10/03 06:10:16;;;;;;;9.88;5.60;;;17.60;99.90;;;17.48;100.00;97265.13;5071611;28;20043;-39
2023/10/03 06:12:41;;;;;;;;;;;17.60;99.90;;;17.53;100.00;97271.00;5063411;28;20491;-38
2023/10/03 06:15:08;;;;;;;14.02;5.40;;;17.70;99.90;;;17.62;100.00;97259.75;5065301;28;19920;-39
2023/10/03 06:17:35;;;;;;;11.68;5.90;;;17.80;99.90;;;17.81;100.00;97272.66;5066109;28;20094;-39
2023/10/03 06:20:00;;;;;;;11.40;6.00;;;17.90;99.90;;;17.87;100.00;97269.63;5060374;28;20897;-40
2023/10/03 06:22:26;;;;;;;10.05;5.53;;;18.00;99.90;;;17.91;100.00;97273.78;5067673;28;20551;-38
2023/10/03 06:24:57;;;;;;;15.82;5.75;;;18.00;99.90;;;17.94;100.00;97272.72;5068643;28;20021;-39
2023/10/03 06:27:23;;;;;;;11.38;5.57;;;18.10;99.90;;;17.96;100.00;97278.78;5065061;28;20684;-39
2023/10/03 06:29:49;;;;;;;8.95;5.45;;;18.10;99.90;;;17.95;100.00;97269.09;5066973;28;20032;-40
2023/10/03 06:32:15;;;;;;;12.48;5.70;;;18.10;99.90;;;17.99;100.00;97275.06;5063680;28;20032;-40
2023/10/03 06:34:40;;;;;;;11.45;5.65;;;18.20;99.90;;;18.01;100.00;97281.16;5058842;28;20027;-39
2023/10/03 06:37:06;;;;;;;9.57;5.40;;;18.20;99.90;;;18.00;100.00;97280.31;5065364;28;20507;-39
2023/10/03 06:39:32;;;;;;;11.65;4.88;;;18.20;99.90;;;18.06;100.00;97282.53;5062265;28;20200;-39
2023/10/03 06:41:58;;;;;;;10.68;5.55;;;18.20;99.90;;;18.11;100.00;97288.41;5065957;28;20028;-39
2023/10/03 06:44:24;;;;;;;11.10;4.97;;;18.30;99.90;;;18.18;100.00;97287.97;5058629;28;20624;-39
2023/10/03 06:46:50;;;;;;;10.50;4.88;;;18.30;99.90;;;18.25;100.00;97279.44;5069227;28;20036;-39
2023/10/03 06:49:17;;;;;;;9.85;5.07;;;18.50;99.90;;;18.35;100.00;97287.66;5062050;28;20373;-38
2023/10/03 06:51:44;;;;;;;11.85;6.10;;;18.60;99.90;;;18.46;100.00;97286.91;5065129;28;20080;-40
2023/10/03 06:54:10;;;;;;;13.98;6.45;;;18.60;99.90;;;18.53;100.00;97285.50;5061214;28;20544;-38
2023/10/03 06:56:36;;;;;;;11.68;6.07;;;18.70;99.90;;;18.69;100.00;97277.25;5066456;28;20024;-41
2023/10/03 06:59:05;;;;;;;13.98;6.60;;;18.90;99.90;;;18.84;100.00;97280.66;5064838;28;20499;-39
2023/10/03 07:01:31;;;;;;;11.45;6.25;;;19.00;99.90;;;18.98;100.00;97285.84;5056871;28;20065;-38
2023/10/03 07:03:58;;;;;;;14.35;6.95;;;19.20;99.90;;;19.11;96.34;97283.13;5063849;28;20332;-39
2023/10/03 07:06:24;;;;;;;13.18;6.32;;;19.30;99.90;;;19.27;92.47;97286.41;5052488;28;20031;-39
2023/10/03 07:08:50;;;;;;;11.52;5.57;;;19.50;99.90;;;19.50;89.93;97289.19;5051078;28;20024;-40
2023/10/03 07:11:16;;;;;;;14.02;6.22;;;19.70;99.90;;;19.70;89.48;97292.16;5050395;28;20081;-41
2023/10/03 07:13:42;;;;;;;10.50;5.45;;;19.90;99.90;;;19.87;84.68;97294.47;5054038;28;20043;-41
2023/10/03 07:16:09;;;;;;;14.40;4.85;;;20.10;99.90;;;20.09;75.13;97303.50;5054510;28;20031;-39
2023/10/03 07:18:39;;;;;;;10.82;5.10;;;20.30;99.90;;;20.35;74.84;97299.66;5059519;28;20395;-39
2023/10/03 07:21:05;;;;;;;9.32;4.70;;;20.50;99.90;;;20.62;71.25;97301.19;5064695;28;20035;-39
2023/10/03 07:23:31;;;;;;;11.50;5.15;;;20.80;99.90;;;20.87;68.94;97292.03;5060189;28;20031;-40
2023/10/03 07:25:56;;;;;;;7.57;4.28;;;21.00;99.90;;;21.04;65.14;97298.69;5062755;28;20040;-39
2023/10/03 07:28:22;;;;;;;8.95;4.68;;;21.20;99.90;;;21.26;61.77;97291.56;5061213;28;20028;-41
2023/10/03 07:30:48;;;;;;;10.73;4.25;;;21.40;99.90;;;21.43;61.61;97290.19;5060726;28;20168;-41
2023/10/03 07:33:14;;;;;;;11.00;4.43;;;21.60;99.90;;;21.57;59.28;97295.31;5060040;28;20032;-40
2023/10/03 07:35:41;;;;;;;8.85;4.70;;;21.70;99.90;;;21.76;59.05;97301.81;5059771;28;20046;-40
2023/10/03 07:38:11;;;;;;;9.82;4.80;;;21.90;99.90;;;21.79;59.17;97275.56;5067700;28;20714;-41
2023/10/03 07:40:40;;;;;;;8.70;4.93;;;22.00;99.90;;;21.99;59.48;97281.91;5069208;28;20405;-40
2023/10/03 07:43:09;;;;;;;8.73;4.80;;;22.10;99.90;;;22.12;58.76;97289.75;5068167;28;21398;-39
2023/10/03 07:45:37;;;;;;;9.57;4.00;;;22.30;99.90;;;22.19;57.73;97282.88;5071435;28;20154;-39
2023/10/03 07:48:06;;;;;;;9.23;4.60;;;22.40;99.90;;;22.35;57.52;97285.13;5067181;28;20336;-40
2023/10/03 07:50:37;;;;;;;10.57;4.70;;;22.60;99.90;;;22.48;55.77;97287.59;5065402;28;20467;-39
2023/10/03 07:53:11;;;;;;;9.23;4.78;;;22.70;99.90;;;22.61;56.25;97292.75;5059457;28;20032;-39
2023/10/03 07:55:38;;;;;;;10.20;4.78;;;22.80;99.90;;;22.74;54.33;97297.88;5059227;28;20055;-40
2023/10/03 07:58:05;;;;;;;10.27;4.22;;;22.90;99.80;;;22.81;55.75;97307.16;5062535;28;20413;-38
2023/10/03 08:00:32;;;;;;;9.02;5.05;;;23.00;99.90;;;22.84;55.42;97296.09;5051171;28;20947;-40
2023/10/03 08:02:58;;;;;;;7.97;4.57;;;23.10;99.90;;;22.92;53.89;97298.97;5061694;28;20044;-41
2023/10/03 08:05:27;;;;;;;9.30;4.75;;;23.10;99.20;;;22.98;55.43;97294.88;5058176;28;20028;-40
2023/10/03 08:07:55;;;;;;;7.18;4.55;;;23.10;99.60;;;23.04;54.89;97295.22;5061774;28;20047;-41
2023/10/03 08:10:21;;;;;;;8.45;5.10;;;23.30;99.40;;;23.23;53.19;97305.16;5057728;28;20032;-41
2023/10/03 08:12:50;;;;;;;8.98;5.05;;;23.40;98.90;;;23.39;58.19;97304.63;5062138;28;20035;-39
2023/10/03 08:15:18;;;;;;;10.38;4.55;;;23.60;99.50;;;23.54;57.06;97296.97;5057599;28;21421;-40
2023/10/03 08:17:49;;;;;;;8.02;4.82;;;23.70;99.70;;;23.66;52.15;97294.19;5059470;28;20055;-39
2023/10/03 08:20:17;;;;;;;10.07;5.00;;;23.90;98.50;;;23.99;51.43;97306.38;5051399;28;20033;-39
2023/10/03 08:22:50;;;;;;;7.82;5.15;;;24.10;97.80;;;24.27;50.27;97303.78;5073561;28;20031;-40
2023/10/03 08:25:18;;;;;;;10.23;4.60;;;24.40;97.70;;;24.57;49.85;97302.75;5063924;28;20036;-40
2023/10/03 08:27:46;;;;;;;8.57;5.30;;;24.70;97.30;;;24.74;48.96;97303.81;5074450;28;20049;-39
2023/10/03 08:30:25;;;;;;;9.73;5.28;;;24.80;96.80;;;24.88;48.36;97297.94;5066230;28;20044;-39
2023/10/03 08:32:54;;;;;;;9.68;4.50;;;24.90;96.20;;;25.00;50.55;97304.00;5068868;28;20157;-39
2023/10/03 08:35:34;;;;;;;9.50;5.18;;;25.00;97.40;;;24.96;49.99;97289.09;5063448;28;20039;-40
2023/10/03 08:38:04;;;;;;;7.57;5.20;;;25.10;96.70;;;24.92;51.38;97285.84;5066069;28;20032;-39
2023/10/03 08:40:41;;;;;;;8.27;4.95;;;25.10;96.80;;;24.85;49.94;97292.84;5069270;28;20032;-42
2023/10/03 08:43:09;;;;;;;17.98;5.55;;;25.00;97.00;;;24.84;49.41;97298.41;5067754;28;20115;-39
2023/10/03 08:45:39;;;;;;;10.38;5.00;;;24.90;96.30;;;24.92;49.86;97285.84;5071417;28;20409;-40
2023/10/03 08:48:08;;;;;;;6.95;4.45;;;25.00;96.70;;;24.98;48.48;97289.81;5071855;28;20105;-39
2023/10/03 08:50:43;;;;;;;8.38;4.80;;;25.10;96.10;;;25.05;48.77;97296.31;5070076;28;20067;-38
2023/10/03 08:53:27;;;;;;;7.78;4.60;;;25.10;96.40;;;25.18;49.54;97287.84;5068344;28;20530;-39
2023/10/03 08:55:57;;;;;;;6.75;4.43;;;25.20;96.60;;;25.13;49.63;97293.69;5068759;28;20112;-40
2023/10/03 08:58:25;;;;;;;10.15;5.20;;;25.30;96.30;;;25.14;50.76;97294.53;5064825;28;20028;-41
2023/10/03 09:00:58;;;;;;;10.57;5.25;;;25.30;96.50;;;25.17;48.88;97301.50;5065364;28;20342;-38
2023/10/03 09:03:47;;;;;;;9.98;4.70;;;25.30;95.70;;;25.25;48.16;97305.16;5066286;28;20036;-39
2023/10/03 09:06:23;;;;;;;7.22;4.72;;;25.30;95.60;;;25.32;48.75;97295.47;5065222;28;20055;-40
2023/10/03 09:09:09;;;;;;;8.75;4.40;;;25.40;95.60;;;25.40;48.72;97291.16;5067680;28;20032;-39
2023/10/03 09:11:39;;;;;;;10.40;4.93;;;25.40;95.50;;;25.42;48.16;97297.25;5069297;28;20348;-41
2023/10/03 09:14:12;;;;;;;11.50;4.85;;;25.50;95.20;;;25.36;48.98;97287.91;5072574;28;20028;-39
2023/10/03 09:16:40;;;;;;;8.68;4.95;;;25.50;95.50;;;25.43;49.25;97299.78;5071358;28;20042;-40
2023/10/03 09:19:09;;;;;;;9.35;5.05;;;25.50;95.90;;;25.44;48.61;97296.09;5074589;28;20051;-39
2023/10/03 09:21:35;;;;;;;9.15;4.97;;;25.50;95.40;;;25.51;48.71;97291.75;5067504;28;20050;-39
2023/10/03 09:24:09;;;;;;;9.13;4.95;;;25.50;95.30;;;25.34;48.67;97290.75;5071595;28;20556;-40
2023/10/03 09:26:51;;;;;;;8.23;4.82;;;25.40;95.20;;;25.34;48.41;97288.06;5068244;28;20129;-39
2023/10/03 09:29:30;;;;;;;9.43;4.65;;;25.40;95.50;;;25.26;51.38;97292.50;5066377;28;20418;-41
2023/10/03 09:32:13;;;;;;;9.15;4.90;;;25.30;96.00;;;25.25;50.27;97293.50;5072293;28;20050;-41
2023/10/03 09:34:42;;;;;;;;;;;25.30;96.50;;;25.22;49.51;97289.25;5069498;28;20028;-40
2023/10/03 09:37:08;;;;;;;7.97;4.57;;;25.20;95.70;;;25.23;51.02;97299.03;5073067;28;19919;-39
2023/10/03 09:39:51;;;;;;;10.00;5.03;;;25.20;96.60;;;25.20;51.34;97299.34;5072381;28;20043;-39
2023/10/03 09:42:24;;;;;;;8.48;4.35;;;25.20;96.30;;;25.17;51.36;97294.22;5067138;28;20605;-39
2023/10/03 09:44:51;;;;;;;8.43;4.60;;;25.20;96.50;;;25.14;50.15;97291.84;5062143;28;20441;-40
2023/10/03 09:47:18;;;;;;;8.68;5.13;;;25.20;95.90;;;25.14;52.50;97292.69;5073503;28;20035;-40
2023/10/03 09:49:47;;;;;;;6.95;4.13;;;25.20;97.10;;;25.28;52.36;97282.41;5070035;28;20557;-40
2023/10/03 09:52:22;;;;;;;8.13;4.43;;;25.30;96.80;;;25.48;50.70;97284.00;5071839;28;20210;-40
2023/10/03 09:54:53;;;;;;;6.15;3.88;;;25.50;96.40;;;25.77;50.14;97279.34;5056118;28;20035;-42
2023/10/03 09:57:21;;;;;;;6.95;4.35;;;25.70;96.00;;;25.96;50.23;97262.16;5067340;28;20100;-40
2023/10/03 09:59:48;;;;;;;9.35;5.15;;;26.10;96.10;;;26.30;47.99;97270.34;5066691;28;20501;-41
2023/10/03 10:02:55;;;;;;;9.02;5.20;;;26.40;94.80;;;26.50;48.25;97265.56;5064421;28;20028;-40
2023/10/03 10:05:22;;;;;;;6.82;4.50;;;26.50;95.00;;;26.74;47.11;97256.78;5070904;28;20113;-40
2023/10/03 10:08:20;;;;;;;8.13;4.70;;;26.70;94.20;;;26.78;46.89;97251.88;5070089;28;20033;-41
2023/10/03 10:11:07;;;;;;;8.20;4.85;;;26.90;93.90;;;26.95;47.23;97255.50;5071725;28;20059;-40
2023/10/03 10:13:41;;;;;;;6.50;4.40;;;27.00;94.40;;;27.09;47.40;97243.19;5071786;28;20035;-40
2023/10/03 10:16:20;;;;;;;7.43;4.90;;;27.10;94.30;;;27.09;48.83;97240.50;5066112;28;20029;-40
2023/10/03 10:18:46;;;;;;;7.35;4.75;;;27.20;95.50;;;27.03;46.67;97252.84;5070248;28;20815;-39